createdAt,value
2022-11-07T00:01:49.005Z,0.36
2022-11-07T00:04:17.341Z,0.31
2022-11-07T00:06:44.830Z,0.29
2022-11-07T00:09:12.521Z,0.26
2022-11-07T00:11:39.925Z,0.23
2022-11-07T00:14:07.554Z,0.16
2022-11-07T00:16:35.160Z,0.23
2022-11-07T00:19:03.340Z,0.17
2022-11-07T00:21:30.661Z,0.36
2022-11-07T00:23:58.372Z,0.55
2022-11-07T00:26:25.604Z,0.61
2022-11-07T00:28:53.371Z,0.81
2022-11-07T00:31:20.784Z,1.02
2022-11-07T00:33:48.724Z,1.31
2022-11-07T00:36:27.396Z,1.54
2022-11-07T00:38:56.080Z,1.63
2022-11-07T00:41:23.698Z,1.76
2022-11-07T00:43:51.886Z,1.92
2022-11-07T00:46:19.913Z,1.99
2022-11-07T00:48:48.236Z,2.16
2022-11-07T00:51:21.051Z,2.19
2022-11-07T00:53:48.927Z,2.27
2022-11-07T00:56:19.787Z,2.36
2022-11-07T00:58:47.762Z,2.40
2022-11-07T01:01:21.159Z,2.46
2022-11-07T01:04:07.883Z,2.56
2022-11-07T01:06:38.259Z,2.63
2022-11-07T01:09:08.253Z,2.68
2022-11-07T01:11:37.880Z,2.75
2022-11-07T01:14:06.463Z,2.84
2022-11-07T01:16:35.631Z,2.86
2022-11-07T01:19:04.163Z,2.96
2022-11-07T01:21:31.561Z,3.05
2022-11-07T01:24:00.430Z,3.09
2022-11-07T01:26:28.016Z,3.21
2022-11-07T01:28:55.782Z,3.26
2022-11-07T01:31:23.212Z,3.31
2022-11-07T01:33:51.131Z,3.29
2022-11-07T01:36:19.122Z,3.43
2022-11-07T01:38:50.886Z,3.43
2022-11-07T01:41:26.789Z,3.44
2022-11-07T01:44:11.637Z,3.53
2022-11-07T01:46:44.437Z,3.59
2022-11-07T01:49:25.106Z,3.66
2022-11-07T01:52:04.393Z,3.69
2022-11-07T01:54:35.105Z,3.73
2022-11-07T01:57:10.163Z,3.75
2022-11-07T01:59:39.131Z,3.85
2022-11-07T02:02:07.270Z,3.94
2022-11-07T02:04:35.292Z,3.99
2022-11-07T02:07:06.992Z,3.96
2022-11-07T02:09:35.116Z,3.96
2022-11-07T02:12:03.180Z,4.00
2022-11-07T02:14:31.102Z,4.06
2022-11-07T02:16:58.534Z,4.13
2022-11-07T02:19:49.512Z,4.16
2022-11-07T02:22:22.556Z,4.11
2022-11-07T02:24:52.739Z,4.15
2022-11-07T02:27:21.980Z,4.17
2022-11-07T02:29:53.721Z,4.22
2022-11-07T02:32:21.065Z,4.32
2022-11-07T02:35:03.797Z,4.32
2022-11-07T02:37:38.945Z,4.28
2022-11-07T02:40:10.405Z,4.37
2022-11-07T02:42:44.744Z,4.45
2022-11-07T02:45:25.261Z,4.51
2022-11-07T02:47:54.104Z,4.57
2022-11-07T02:50:22.111Z,4.61
2022-11-07T02:52:49.530Z,4.71
2022-11-07T02:55:17.562Z,4.81
2022-11-07T02:57:45.226Z,4.90
2022-11-07T03:00:14.365Z,4.81
2022-11-07T03:02:47.485Z,4.92
2022-11-07T03:05:20.041Z,4.92
2022-11-07T03:07:48.972Z,4.88
2022-11-07T03:10:17.623Z,4.91
2022-11-07T03:12:44.981Z,4.93
2022-11-07T03:15:13.592Z,4.94
2022-11-07T03:17:41.619Z,4.91
2022-11-07T03:20:10.132Z,4.92
2022-11-07T03:22:37.560Z,4.99
2022-11-07T03:25:06.510Z,4.99
2022-11-07T03:27:33.862Z,5.00
2022-11-07T03:30:01.770Z,5.02
2022-11-07T03:32:29.114Z,5.01
2022-11-07T03:34:56.871Z,5.03
2022-11-07T03:37:24.081Z,5.04
2022-11-07T03:39:51.772Z,5.02
2022-11-07T03:42:19.342Z,4.98
2022-11-07T03:44:46.984Z,5.03
2022-11-07T03:47:14.480Z,5.02
2022-11-07T03:49:42.254Z,5.07
2022-11-07T03:52:10.823Z,5.16
2022-11-07T03:54:39.565Z,5.13
2022-11-07T03:57:08.333Z,5.16
2022-11-07T03:59:36.070Z,5.26
2022-11-07T04:02:03.588Z,5.31
2022-11-07T04:04:32.435Z,5.41
2022-11-07T04:06:59.903Z,5.44
2022-11-07T04:09:27.496Z,5.45
2022-11-07T04:12:13.762Z,5.49
2022-11-07T04:15:00.379Z,5.64
2022-11-07T04:17:29.359Z,5.64
2022-11-07T04:19:57.364Z,5.70
2022-11-07T04:22:25.781Z,5.70
2022-11-07T04:24:53.656Z,5.80
2022-11-07T04:27:40.003Z,5.79
2022-11-07T04:30:19.697Z,5.86
2022-11-07T04:32:48.727Z,5.91
2022-11-07T04:35:17.207Z,6.00
2022-11-07T04:37:44.992Z,6.06
2022-11-07T04:40:12.766Z,6.04
2022-11-07T04:42:40.461Z,6.07
2022-11-07T04:45:08.840Z,6.10
2022-11-07T04:47:40.187Z,6.13
2022-11-07T04:50:11.943Z,6.19
2022-11-07T04:52:39.971Z,6.20
2022-11-07T04:55:10.423Z,6.21
2022-11-07T04:57:37.852Z,6.14
2022-11-07T05:00:06.169Z,6.12
2022-11-07T05:02:33.558Z,6.24
2022-11-07T05:05:01.520Z,6.28
2022-11-07T05:07:28.834Z,6.34
2022-11-07T05:09:56.720Z,6.34
2022-11-07T05:12:23.977Z,6.34
2022-11-07T05:14:51.690Z,6.38
2022-11-07T05:17:19.248Z,6.35
2022-11-07T05:19:48.012Z,6.42
2022-11-07T05:22:33.907Z,6.42
2022-11-07T05:25:01.617Z,6.42
2022-11-07T05:27:28.939Z,6.45
2022-11-07T05:29:56.507Z,6.38
2022-11-07T05:32:45.695Z,6.49
2022-11-07T05:35:13.214Z,6.55
2022-11-07T05:37:40.540Z,6.56
2022-11-07T05:40:08.772Z,6.62
2022-11-07T05:42:36.222Z,6.55
2022-11-07T05:45:04.091Z,6.60
2022-11-07T05:47:31.612Z,6.62
2022-11-07T05:49:59.352Z,6.60
2022-11-07T05:52:26.811Z,6.56
2022-11-07T05:54:54.512Z,6.63
2022-11-07T05:57:21.970Z,6.63
2022-11-07T05:59:49.674Z,6.59
2022-11-07T06:02:17.242Z,6.65
2022-11-07T06:04:45.145Z,6.64
2022-11-07T06:07:12.794Z,6.65
2022-11-07T06:09:40.424Z,6.70
2022-11-07T06:12:08.157Z,6.68
2022-11-07T06:14:35.903Z,6.70
2022-11-07T06:17:03.698Z,6.74
2022-11-07T06:19:31.625Z,6.74
2022-11-07T06:22:01.431Z,6.74
2022-11-07T06:24:29.507Z,6.80
2022-11-07T06:26:56.995Z,6.82
2022-11-07T06:29:25.155Z,6.75
2022-11-07T06:31:56.294Z,6.87
2022-11-07T06:34:24.812Z,7.01
2022-11-07T06:37:02.544Z,7.05
2022-11-07T06:39:30.972Z,7.13
2022-11-07T06:41:58.252Z,7.11
2022-11-07T06:44:26.000Z,7.20
2022-11-07T06:46:53.738Z,7.24
2022-11-07T06:49:21.309Z,7.28
2022-11-07T06:51:48.690Z,7.27
2022-11-07T06:54:16.541Z,7.38
2022-11-07T06:56:43.910Z,7.38
2022-11-07T06:59:11.652Z,7.48
2022-11-07T07:01:39.259Z,7.50
2022-11-07T07:04:07.081Z,7.59
2022-11-07T07:06:34.512Z,7.55
2022-11-07T07:09:02.736Z,7.67
2022-11-07T07:11:30.232Z,7.65
2022-11-07T07:14:01.920Z,7.80
2022-11-07T07:16:29.766Z,7.89
2022-11-07T07:18:57.449Z,7.96
2022-11-07T07:21:24.961Z,8.03
2022-11-07T07:23:53.195Z,8.09
2022-11-07T07:26:20.564Z,8.16
2022-11-07T07:28:49.321Z,8.25
2022-11-07T07:31:19.946Z,8.32
2022-11-07T07:33:48.842Z,8.43
2022-11-07T07:36:20.512Z,8.41
2022-11-07T07:38:49.770Z,8.44
2022-11-07T07:41:17.831Z,8.48
2022-11-07T07:43:45.554Z,8.51
2022-11-07T07:46:19.990Z,8.52
2022-11-07T07:48:47.570Z,8.54
2022-11-07T07:51:15.263Z,8.59
2022-11-07T07:53:42.942Z,8.59
2022-11-07T07:56:10.380Z,8.61
2022-11-07T07:58:38.040Z,8.57
2022-11-07T08:01:10.548Z,8.57
2022-11-07T08:03:59.634Z,8.55
2022-11-07T08:06:26.226Z,8.67
2022-11-07T08:08:53.863Z,8.67
2022-11-07T08:11:21.638Z,8.67
2022-11-07T08:13:49.297Z,8.71
2022-11-07T08:16:16.594Z,8.75
2022-11-07T08:18:44.472Z,8.82
2022-11-07T08:21:12.195Z,8.78
2022-11-07T08:23:40.391Z,8.82
2022-11-07T08:26:07.777Z,8.84
2022-11-07T08:28:36.484Z,8.84
2022-11-07T08:31:06.703Z,8.93
2022-11-07T08:33:34.922Z,8.92
2022-11-07T08:36:03.105Z,8.99
2022-11-07T08:38:32.581Z,9.03
2022-11-07T08:41:00.512Z,9.02
2022-11-07T08:43:28.716Z,9.18
2022-11-07T08:45:56.522Z,9.17
2022-11-07T08:48:24.819Z,9.30
2022-11-07T08:50:56.676Z,9.36
2022-11-07T08:53:25.781Z,9.44
2022-11-07T08:56:00.105Z,9.53
2022-11-07T08:58:30.322Z,9.60
2022-11-07T09:00:58.452Z,9.75
2022-11-07T09:06:14.022Z,10.10
2022-11-07T09:08:41.877Z,10.26
2022-11-07T09:11:09.716Z,10.54
2022-11-07T09:13:37.888Z,10.61
2022-11-07T09:16:05.924Z,10.67
2022-11-07T09:18:34.123Z,10.70
2022-11-07T09:21:01.371Z,10.83
2022-11-07T09:23:29.765Z,10.82
2022-11-07T09:26:00.943Z,10.80
2022-11-07T09:28:29.977Z,10.77
2022-11-07T09:31:00.214Z,10.71
2022-11-07T09:33:28.938Z,10.63
2022-11-07T09:36:02.072Z,10.59
2022-11-07T09:38:30.165Z,10.66
2022-11-07T09:41:23.870Z,10.60
2022-11-07T09:43:54.881Z,10.63
2022-11-07T09:46:33.320Z,10.65
2022-11-07T09:49:22.293Z,10.61
2022-11-07T09:51:59.286Z,10.48
2022-11-07T09:54:30.006Z,10.51
2022-11-07T09:56:59.666Z,10.57
2022-11-07T09:59:38.430Z,10.63
2022-11-07T10:02:14.773Z,10.66
2022-11-07T10:04:44.069Z,10.60
2022-11-07T10:07:37.002Z,10.73
2022-11-07T10:10:14.168Z,10.82
2022-11-07T10:13:00.304Z,10.82
2022-11-07T10:15:38.594Z,10.85
2022-11-07T10:18:19.641Z,10.93
2022-11-07T10:21:31.291Z,10.95
2022-11-07T10:24:15.902Z,10.96
2022-11-07T10:26:46.371Z,10.96
2022-11-07T10:29:19.462Z,11.01
2022-11-07T10:31:55.295Z,10.98
2022-11-07T10:34:42.348Z,11.14
2022-11-07T10:37:10.311Z,11.21
2022-11-07T10:39:38.036Z,11.12
2022-11-07T10:42:07.345Z,11.14
2022-11-07T10:44:35.672Z,11.07
2022-11-07T10:47:03.733Z,11.05
2022-11-07T10:49:32.714Z,10.96
2022-11-07T10:52:14.891Z,11.00
2022-11-07T10:54:43.631Z,11.00
2022-11-07T10:57:19.955Z,10.95
2022-11-07T10:59:50.450Z,11.00
2022-11-07T11:02:32.813Z,11.01
2022-11-07T11:05:03.020Z,11.03
2022-11-07T11:07:36.885Z,11.07
2022-11-07T11:10:14.037Z,11.09
2022-11-07T11:12:46.252Z,11.03
2022-11-07T11:15:19.642Z,11.00
2022-11-07T11:17:48.214Z,11.00
2022-11-07T11:20:27.673Z,10.94
2022-11-07T11:22:55.417Z,10.82
2022-11-07T11:25:23.993Z,10.84
2022-11-07T11:27:55.888Z,10.80
2022-11-07T11:30:23.599Z,10.68
2022-11-07T11:32:51.373Z,10.75
2022-11-07T11:35:43.400Z,10.77
2022-11-07T11:38:13.736Z,10.86
2022-11-07T11:40:42.922Z,10.74
2022-11-07T11:43:20.458Z,10.73
2022-11-07T11:46:25.586Z,10.75
2022-11-07T11:49:01.035Z,10.73
2022-11-07T11:51:37.114Z,10.68
2022-11-07T11:54:11.599Z,10.69
2022-11-07T11:56:44.816Z,10.63
2022-11-07T11:59:18.586Z,10.59
2022-11-07T12:01:56.702Z,10.49
2022-11-07T12:04:27.810Z,10.67
2022-11-07T12:07:02.521Z,10.61
2022-11-07T12:09:42.891Z,10.71
2022-11-07T12:12:19.555Z,10.69
2022-11-07T12:15:20.332Z,10.66
2022-11-07T12:17:53.305Z,10.55
2022-11-07T12:20:25.447Z,10.54
2022-11-07T12:23:07.009Z,10.52
2022-11-07T12:25:44.909Z,10.48
2022-11-07T12:28:44.006Z,10.39
2022-11-07T12:31:26.055Z,10.35
2022-11-07T12:34:20.351Z,10.48
2022-11-07T12:37:04.469Z,10.63
2022-11-07T12:39:43.610Z,10.65
2022-11-07T12:42:19.083Z,10.64
2022-11-07T12:44:56.177Z,10.67
2022-11-07T12:47:46.644Z,10.72
2022-11-07T12:50:23.174Z,10.80
2022-11-07T12:53:23.028Z,10.84
2022-11-07T12:55:52.854Z,10.87
2022-11-07T12:58:34.357Z,10.90
2022-11-07T13:01:02.537Z,10.89
2022-11-07T13:03:45.982Z,10.90
2022-11-07T13:06:18.813Z,10.85
2022-11-07T13:08:57.725Z,10.88
2022-11-07T13:11:32.947Z,10.92
2022-11-07T13:14:33.227Z,10.86
2022-11-07T13:17:20.725Z,10.82
2022-11-07T13:20:20.836Z,10.75
2022-11-07T13:22:49.802Z,10.62
2022-11-07T13:25:22.739Z,10.58
2022-11-07T13:27:56.071Z,10.46
2022-11-07T13:30:40.232Z,10.49
2022-11-07T13:33:25.271Z,10.38
2022-11-07T13:35:55.509Z,10.39
2022-11-07T13:38:24.769Z,10.36
2022-11-07T13:41:04.911Z,10.38
2022-11-07T13:44:02.729Z,10.31
2022-11-07T13:46:47.078Z,10.27
2022-11-07T13:49:25.109Z,10.18
2022-11-07T13:51:53.785Z,10.09
2022-11-07T13:54:27.678Z,10.02
2022-11-07T13:56:59.850Z,9.88
2022-11-07T13:59:44.488Z,9.95
2022-11-07T14:02:38.535Z,9.98
2022-11-07T14:05:18.511Z,10.00
2022-11-07T14:07:54.324Z,10.00
2022-11-07T14:10:42.387Z,10.00
2022-11-07T14:13:30.336Z,9.97
2022-11-07T14:16:00.697Z,9.99
2022-11-07T14:18:32.282Z,9.95
2022-11-07T14:21:00.492Z,9.93
2022-11-07T14:23:30.231Z,9.95
2022-11-07T14:26:00.991Z,9.94
2022-11-07T14:28:40.677Z,9.96
2022-11-07T14:31:16.680Z,9.87
2022-11-07T14:33:49.495Z,9.86
2022-11-07T14:36:17.697Z,9.90
2022-11-07T14:38:48.371Z,9.84
2022-11-07T14:41:16.356Z,9.79
2022-11-07T14:43:45.194Z,9.88
2022-11-07T14:46:19.289Z,9.82
2022-11-07T14:48:49.540Z,9.88
2022-11-07T14:51:24.726Z,9.80
2022-11-07T14:53:55.742Z,9.80
2022-11-07T14:56:31.002Z,9.73
2022-11-07T14:58:59.170Z,9.75
2022-11-07T15:01:35.910Z,9.71
2022-11-07T15:04:30.367Z,9.72
2022-11-07T15:06:57.793Z,9.70
2022-11-07T15:09:33.787Z,9.74
2022-11-07T15:12:01.548Z,9.72
2022-11-07T15:14:35.298Z,9.66
2022-11-07T15:17:06.389Z,9.66
2022-11-07T15:19:34.954Z,9.62
2022-11-07T15:22:04.641Z,9.57
2022-11-07T15:24:50.938Z,9.60
2022-11-07T15:27:28.227Z,9.64
2022-11-07T15:30:00.378Z,9.61
2022-11-07T15:32:46.099Z,9.60
2022-11-07T15:35:43.118Z,9.60
2022-11-07T15:38:19.658Z,9.60
2022-11-07T15:40:48.049Z,9.56
2022-11-07T15:43:15.856Z,9.59
2022-11-07T15:45:43.715Z,9.59
2022-11-07T15:48:22.157Z,9.58
2022-11-07T15:50:50.312Z,9.54
2022-11-07T15:53:23.425Z,9.55
2022-11-07T15:56:04.852Z,9.47
2022-11-07T15:58:32.626Z,9.53
2022-11-07T16:01:00.793Z,9.46
2022-11-07T16:03:28.583Z,9.45
2022-11-07T16:06:01.853Z,9.46
2022-11-07T16:08:29.862Z,9.52
2022-11-07T16:11:01.885Z,9.55
2022-11-07T16:13:29.651Z,9.51
2022-11-07T16:16:00.520Z,9.48
2022-11-07T16:18:28.233Z,9.46
2022-11-07T16:20:55.888Z,9.43
2022-11-07T16:23:23.228Z,9.46
2022-11-07T16:25:51.438Z,9.45
2022-11-07T16:28:33.376Z,9.43
2022-11-07T16:31:01.474Z,9.42
2022-11-07T16:33:28.896Z,9.37
2022-11-07T16:36:01.420Z,9.35
2022-11-07T16:38:34.938Z,9.34
2022-11-07T16:41:03.256Z,9.34
2022-11-07T16:43:35.180Z,9.27
2022-11-07T16:46:02.905Z,9.33
2022-11-07T16:48:30.597Z,9.35
2022-11-07T16:50:58.332Z,9.25
2022-11-07T16:53:26.192Z,9.35
2022-11-07T16:55:55.343Z,9.34
2022-11-07T16:58:31.006Z,9.34
2022-11-07T17:01:01.867Z,9.38
2022-11-07T17:03:30.272Z,9.38
2022-11-07T17:05:59.774Z,9.34
2022-11-07T17:08:47.922Z,9.35
2022-11-07T17:11:18.053Z,9.31
2022-11-07T17:13:45.792Z,9.29
2022-11-07T17:16:25.771Z,9.27
2022-11-07T17:18:53.444Z,9.29
2022-11-07T17:21:26.810Z,9.24
2022-11-07T17:23:56.286Z,9.27
2022-11-07T17:26:30.338Z,9.26
2022-11-07T17:28:59.121Z,9.23
2022-11-07T17:31:26.821Z,9.27
2022-11-07T17:33:54.135Z,9.25
2022-11-07T17:36:26.041Z,9.27
2022-11-07T17:38:54.469Z,9.22
2022-11-07T17:41:22.324Z,9.24
2022-11-07T17:43:50.516Z,9.28
2022-11-07T17:46:21.061Z,9.29
2022-11-07T17:48:48.811Z,9.27
2022-11-07T17:51:16.632Z,9.26
2022-11-07T17:53:43.817Z,9.29
2022-11-07T17:56:31.076Z,9.26
2022-11-07T17:59:18.742Z,9.23
2022-11-07T18:01:46.954Z,9.21
2022-11-07T18:04:14.633Z,9.20
2022-11-07T18:06:43.527Z,9.16
2022-11-07T18:09:14.687Z,9.19
2022-11-07T18:11:43.664Z,9.14
2022-11-07T18:14:13.191Z,9.04
2022-11-07T18:16:41.169Z,9.03
2022-11-07T18:19:09.908Z,8.99
2022-11-07T18:21:37.558Z,8.90
2022-11-07T18:24:05.202Z,8.83
2022-11-07T18:26:33.673Z,8.77
2022-11-07T18:29:03.741Z,8.76
2022-11-07T18:31:31.520Z,8.71
2022-11-07T18:34:00.318Z,8.68
2022-11-07T18:36:28.303Z,8.63
2022-11-07T18:38:55.597Z,8.59
2022-11-07T18:41:24.301Z,8.49
2022-11-07T18:43:54.010Z,8.54
2022-11-07T18:46:22.141Z,8.50
2022-11-07T18:48:50.868Z,8.43
2022-11-07T18:51:24.121Z,8.43
2022-11-07T18:53:53.342Z,8.39
2022-11-07T18:56:21.760Z,8.33
2022-11-07T18:58:49.222Z,8.29
2022-11-07T19:01:19.890Z,8.28
2022-11-07T19:03:48.036Z,8.25
2022-11-07T19:06:17.804Z,8.22
2022-11-07T19:08:49.575Z,8.18
2022-11-07T19:11:25.534Z,8.18
2022-11-07T19:13:53.295Z,8.15
2022-11-07T19:16:24.776Z,8.09
2022-11-07T19:18:52.312Z,8.08
2022-11-07T19:21:21.350Z,8.09
2022-11-07T19:23:50.104Z,8.16
2022-11-07T19:26:19.347Z,8.13
2022-11-07T19:28:47.271Z,8.13
2022-11-07T19:31:15.021Z,8.13
2022-11-07T19:33:42.969Z,8.15
2022-11-07T19:36:20.130Z,8.19
2022-11-07T19:38:48.359Z,8.21
2022-11-07T19:41:17.353Z,8.22
2022-11-07T19:43:48.593Z,8.20
2022-11-07T19:46:19.306Z,8.28
2022-11-07T19:48:47.830Z,8.31
2022-11-07T19:51:21.644Z,8.31
2022-11-07T19:53:55.881Z,8.37
2022-11-07T19:56:25.480Z,8.37
2022-11-07T19:58:53.712Z,8.37
2022-11-07T20:01:27.837Z,8.36
2022-11-07T20:03:56.160Z,8.40
2022-11-07T20:06:27.247Z,8.39
2022-11-07T20:08:54.728Z,8.38
2022-11-07T20:11:24.291Z,8.35
2022-11-07T20:13:54.736Z,8.39
2022-11-07T20:16:24.145Z,8.36
2022-11-07T20:18:51.644Z,8.32
2022-11-07T20:21:21.646Z,8.31
2022-11-07T20:23:50.076Z,8.35
2022-11-07T20:26:20.538Z,8.31
2022-11-07T20:28:49.247Z,8.23
2022-11-07T20:31:19.918Z,8.21
2022-11-07T20:33:47.656Z,8.19
2022-11-07T20:36:16.984Z,8.18
2022-11-07T20:38:44.911Z,8.14
2022-11-07T20:41:13.665Z,8.15
2022-11-07T20:43:43.660Z,8.10
2022-11-07T20:46:14.728Z,8.05
2022-11-07T20:48:43.061Z,8.05
2022-11-07T20:51:13.171Z,8.05
2022-11-07T20:53:46.819Z,7.86
2022-11-07T20:56:18.095Z,7.81
2022-11-07T20:58:46.628Z,7.92
2022-11-07T21:01:17.354Z,7.85
2022-11-07T21:03:45.316Z,7.85
2022-11-07T21:06:13.243Z,7.81
2022-11-07T21:08:42.381Z,7.79
2022-11-07T21:11:11.443Z,7.70
2022-11-07T21:13:39.448Z,7.72
2022-11-07T21:16:08.036Z,7.60
2022-11-07T21:18:37.463Z,7.67
2022-11-07T21:21:18.762Z,7.57
2022-11-07T21:23:46.950Z,7.57
2022-11-07T21:26:17.426Z,7.52
2022-11-07T21:28:44.985Z,7.63
2022-11-07T21:31:15.262Z,7.58
2022-11-07T21:33:42.705Z,7.51
2022-11-07T21:36:12.123Z,7.46
2022-11-07T21:38:39.676Z,7.51
2022-11-07T21:41:09.195Z,7.47
2022-11-07T21:43:36.751Z,7.49
2022-11-07T21:46:24.450Z,7.41
2022-11-07T21:48:52.229Z,7.35
2022-11-07T21:51:22.344Z,7.46
2022-11-07T21:53:50.091Z,7.34
2022-11-07T21:56:29.201Z,7.40
2022-11-07T21:58:59.062Z,7.31
2022-11-07T22:01:28.219Z,7.25
2022-11-07T22:04:12.462Z,7.30
2022-11-07T22:06:44.159Z,7.25
2022-11-07T22:09:15.031Z,7.28
2022-11-07T22:11:43.719Z,7.27
2022-11-07T22:14:14.623Z,7.21
2022-11-07T22:16:42.770Z,7.17
2022-11-07T22:19:12.705Z,7.17
2022-11-07T22:21:41.230Z,7.06
2022-11-07T22:24:09.459Z,7.08
2022-11-07T22:26:37.460Z,7.05
2022-11-07T22:29:04.880Z,6.98
2022-11-07T22:31:32.571Z,7.01
2022-11-07T22:34:00.979Z,7.01
2022-11-07T22:36:29.382Z,7.01
2022-11-07T22:38:57.812Z,7.01
2022-11-07T22:41:27.182Z,6.94
2022-11-07T22:43:55.144Z,6.94
2022-11-07T22:46:24.790Z,6.94
2022-11-07T22:48:53.394Z,6.88
2022-11-07T22:51:27.866Z,6.86
2022-11-07T22:54:03.378Z,6.90
2022-11-07T22:56:32.371Z,6.84
2022-11-07T22:59:00.026Z,6.84
2022-11-07T23:01:34.317Z,6.83
2022-11-07T23:04:01.991Z,6.83
2022-11-07T23:06:30.417Z,6.77
2022-11-07T23:08:58.800Z,6.79
2022-11-07T23:11:50.804Z,6.78
2022-11-07T23:14:20.242Z,6.78
2022-11-07T23:16:53.284Z,6.67
2022-11-07T23:19:23.537Z,6.81
2022-11-07T23:21:53.776Z,6.82
2022-11-07T23:24:21.269Z,6.80
2022-11-07T23:26:49.607Z,6.85
2022-11-07T23:29:19.808Z,6.89
2022-11-07T23:31:48.758Z,6.94
2022-11-07T23:34:16.971Z,7.00
2022-11-07T23:36:45.133Z,7.04
2022-11-07T23:39:15.804Z,7.13
2022-11-07T23:41:43.737Z,7.16
2022-11-07T23:44:11.294Z,7.17
2022-11-07T23:46:57.641Z,7.17
2022-11-07T23:49:43.377Z,7.24
2022-11-07T23:52:11.028Z,7.28
2022-11-07T23:54:57.035Z,7.32
2022-11-07T23:57:24.936Z,7.39
